Sao Francisco de Assis, Brazil
Current Conditions -  °F | °C
As of 6:00 AM on Saturday 22 Nov 2014 (Local Time) from SBSM Reporting Station
Broken Clouds Broken Clouds  
Wind Chill: 66°   Ceiling: 1900
Heat Index: 66°   Visibility: 6mi
Dew Point: 61°   Wind: 17mph
Humidity: 83%   Direction: 280°W
Pressure: 29.8"   Gusts: NA
Location:  29.55°S, 55.13°W
Report Text: SBSM 220800Z 28015KT 9999 BKN019 19/16 Q1009
Loading
Personal Weather Stations






























Interactive Weather Map New forecast layout! Learn more

10-Day Weather Forecast

Advertisements
Track Severe Weather on mobile